Time;durP1;ratioP1;P1;durP2;ratioP2;P2;SDS_P1;SDS_P2;PMS_P1;PMS_P2;Temp;Humidity;BMP_temperature;BMP_pressure;BME280_temperature;BME280_humidity;BME280_pressure;Samples;Min_cycle;Max_cycle;Signal;HPM_P1;HPM_P2
2024/02/23 00:00:58;;;;;;;43.65;19.02;;;;;;;;;;2067302;28;20032;-64
2024/02/23 00:02:17;;;;;;;39.22;19.38;;;;;;;;;;2071539;28;20038;-64
2024/02/23 00:03:36;;;;;;;40.78;19.60;;;;;;;;;;2068019;28;20069;-64
2024/02/23 00:04:55;;;;;;;40.20;19.20;;;;;;;;;;2069231;28;20142;-63
2024/02/23 00:06:14;;;;;;;43.83;20.00;;;;;;;;;;2071687;28;20091;-62
2024/02/23 00:07:33;;;;;;;39.40;19.63;;;;;;;;;;2069159;28;20061;-64
2024/02/23 00:08:53;;;;;;;38.63;18.88;;;;;;;;;;2068106;28;20034;-63
2024/02/23 00:10:12;;;;;;;42.42;19.08;;;;;;;;;;2068317;28;20042;-63
2024/02/23 00:11:39;;;;;;;40.05;19.27;;;;;;;;;;2069303;28;20034;-63
2024/02/23 00:12:58;;;;;;;46.10;18.92;;;;;;;;;;2068890;28;20030;-65
2024/02/23 00:14:18;;;;;;;41.10;19.45;;;;;;;;;;2073821;28;20030;-64
2024/02/23 00:15:37;;;;;;;43.25;19.40;;;;;;;;;;2065685;28;20507;-63
2024/02/23 00:16:57;;;;;;;45.13;19.48;;;;;;;;;;2068588;28;20035;-63
2024/02/23 00:18:16;;;;;;;41.38;19.95;;;;;;;;;;2068954;28;20479;-64
2024/02/23 00:19:35;;;;;;;48.58;20.67;;;;;;;;;;2071526;28;20045;-63
2024/02/23 00:20:56;;;;;;;46.50;20.13;;;;;;;;;;2070046;28;20069;-63
2024/02/23 00:22:15;;;;;;;38.15;18.88;;;;;;;;;;2068868;28;20034;-63
2024/02/23 00:23:34;;;;;;;45.17;19.15;;;;;;;;;;2069410;28;20425;-63
2024/02/23 00:24:53;;;;;;;43.80;19.65;;;;;;;;;;2071065;28;20038;-63
2024/02/23 00:26:12;;;;;;;39.95;19.77;;;;;;;;;;2063877;28;20051;-63
2024/02/23 00:27:39;;;;;;;45.45;20.58;;;;;;;;;;2066039;28;21402;-64
2024/02/23 00:28:58;;;;;;;46.88;20.75;;;;;;;;;;2069324;28;20042;-63
2024/02/23 00:30:17;;;;;;;51.08;21.73;;;;;;;;;;2070206;28;20041;-63
2024/02/23 00:31:42;;;;;;;40.65;20.85;;;;;;;;;;2069774;28;20109;-63
2024/02/23 00:33:01;;;;;;;36.15;20.17;;;;;;;;;;2070500;28;20124;-63
2024/02/23 00:34:21;;;;;;;41.83;19.45;;;;;;;;;;2070311;28;20034;-63
2024/02/23 00:35:40;;;;;;;43.55;21.25;;;;;;;;;;2068980;28;20069;-63
2024/02/23 00:36:59;;;;;;;46.03;20.92;;;;;;;;;;2068553;28;20044;-63
2024/02/23 00:38:18;;;;;;;47.22;21.50;;;;;;;;;;2070261;28;20034;-63
2024/02/23 00:39:37;;;;;;;48.63;21.92;;;;;;;;;;2070165;28;20030;-64
2024/02/23 00:40:56;;;;;;;44.85;20.35;;;;;;;;;;2068699;28;20030;-63
2024/02/23 00:42:15;;;;;;;44.47;20.98;;;;;;;;;;2069336;28;20633;-63
2024/02/23 00:43:39;;;;;;;50.70;20.75;;;;;;;;;;2067426;28;20041;-64
2024/02/23 00:44:58;;;;;;;49.35;22.15;;;;;;;;;;2070566;28;20042;-63
2024/02/23 00:46:16;;;;;;;41.55;19.38;;;;;;;;;;2071014;28;20077;-63
2024/02/23 00:47:36;;;;;;;43.28;21.55;;;;;;;;;;2069581;28;20418;-63
2024/02/23 00:48:55;;;;;;;52.10;23.05;;;;;;;;;;2065937;28;20038;-63
2024/02/23 00:50:14;;;;;;;45.75;22.60;;;;;;;;;;2068483;28;20510;-63
2024/02/23 00:51:33;;;;;;;44.05;21.52;;;;;;;;;;2067985;28;20023;-64
2024/02/23 00:52:52;;;;;;;48.42;21.95;;;;;;;;;;2069242;28;20034;-63
2024/02/23 00:54:11;;;;;;;48.15;21.90;;;;;;;;;;2068780;28;20097;-63
2024/02/23 00:55:30;;;;;;;42.25;21.48;;;;;;;;;;2070773;28;20030;-63
2024/02/23 00:56:49;;;;;;;56.10;23.40;;;;;;;;;;2068331;28;20030;-64
2024/02/23 00:58:08;;;;;;;45.05;21.20;;;;;;;;;;2067912;28;20030;-67
2024/02/23 00:59:27;;;;;;;46.28;22.20;;;;;;;;;;2070190;28;20121;-63
2024/02/23 01:00:46;;;;;;;51.90;21.52;;;;;;;;;;2068968;28;20124;-64
2024/02/23 01:02:05;;;;;;;50.65;23.42;;;;;;;;;;2064889;28;20510;-63
2024/02/23 01:03:24;;;;;;;48.25;22.52;;;;;;;;;;2063232;28;20487;-64
2024/02/23 01:04:43;;;;;;;50.55;22.05;;;;;;;;;;2068860;28;20506;-64
2024/02/23 01:06:02;;;;;;;52.67;22.83;;;;;;;;;;2067491;28;20626;-64
2024/02/23 01:07:21;;;;;;;52.00;22.75;;;;;;;;;;2067716;28;20034;-64
2024/02/23 01:08:40;;;;;;;57.03;24.83;;;;;;;;;;2068679;28;20038;-63
2024/02/23 01:09:59;;;;;;;49.90;22.77;;;;;;;;;;2069223;28;20034;-64
2024/02/23 01:11:18;;;;;;;48.10;22.75;;;;;;;;;;2067571;28;20113;-64
2024/02/23 01:12:37;;;;;;;50.75;23.10;;;;;;;;;;2068245;28;20030;-63
2024/02/23 01:13:56;;;;;;;55.03;23.20;;;;;;;;;;2069498;28;20459;-63
2024/02/23 01:15:15;;;;;;;50.97;22.10;;;;;;;;;;2066583;28;20030;-63
2024/02/23 01:16:34;;;;;;;50.55;22.00;;;;;;;;;;2068581;28;20129;-64
2024/02/23 01:17:53;;;;;;;49.15;22.25;;;;;;;;;;2069898;28;20440;-63
2024/02/23 01:19:13;;;;;;;54.15;24.33;;;;;;;;;;2065298;28;20038;-63
2024/02/23 01:20:32;;;;;;;55.95;22.95;;;;;;;;;;2068917;28;20385;-63
2024/02/23 01:21:59;;;;;;;49.60;22.17;;;;;;;;;;2069206;28;20410;-63
2024/02/23 01:23:18;;;;;;;51.80;21.45;;;;;;;;;;2067641;28;21615;-63
2024/02/23 01:24:37;;;;;;;52.70;22.75;;;;;;;;;;2067266;28;20030;-63
2024/02/23 01:25:56;;;;;;;53.03;21.98;;;;;;;;;;2068346;28;20598;-63
2024/02/23 01:27:14;;;;;;;51.83;22.88;;;;;;;;;;2070319;28;20072;-64
2024/02/23 01:28:33;;;;;;;52.85;21.83;;;;;;;;;;2068567;28;20406;-64
2024/02/23 01:29:52;;;;;;;53.92;22.08;;;;;;;;;;2066040;28;20121;-63
2024/02/23 01:31:11;;;;;;;45.03;21.27;;;;;;;;;;2067422;28;20034;-63
2024/02/23 01:32:30;;;;;;;52.70;21.85;;;;;;;;;;2067586;28;20030;-63
2024/02/23 01:33:50;;;;;;;43.75;21.10;;;;;;;;;;2067232;28;20215;-64
2024/02/23 01:35:09;;;;;;;50.03;21.58;;;;;;;;;;2065141;28;20485;-63
2024/02/23 01:36:28;;;;;;;43.67;20.77;;;;;;;;;;2069007;28;20027;-63
2024/02/23 01:37:47;;;;;;;43.05;20.67;;;;;;;;;;2067112;28;20038;-63
2024/02/23 01:39:06;;;;;;;40.60;19.83;;;;;;;;;;2068200;28;20022;-64
2024/02/23 01:40:26;;;;;;;40.17;20.67;;;;;;;;;;2067556;28;20149;-63
2024/02/23 01:41:45;;;;;;;42.72;20.52;;;;;;;;;;2068845;28;20038;-63
2024/02/23 01:43:04;;;;;;;40.47;19.98;;;;;;;;;;2067916;28;20129;-65
2024/02/23 01:44:23;;;;;;;46.50;21.40;;;;;;;;;;2069446;28;20030;-63
2024/02/23 01:45:42;;;;;;;38.05;18.70;;;;;;;;;;2068624;28;20061;-63
2024/02/23 01:47:01;;;;;;;37.85;19.38;;;;;;;;;;2070327;28;20022;-63
2024/02/23 01:48:20;;;;;;;39.85;19.48;;;;;;;;;;2067843;28;20046;-63
2024/02/23 01:49:39;;;;;;;38.25;19.55;;;;;;;;;;2067346;28;20502;-63
2024/02/23 01:50:58;;;;;;;36.85;20.10;;;;;;;;;;2072758;28;20057;-64
2024/02/23 01:52:17;;;;;;;40.08;20.48;;;;;;;;;;2068873;28;20034;-63
2024/02/23 01:53:36;;;;;;;39.92;19.95;;;;;;;;;;2068395;28;20398;-63
2024/02/23 01:54:56;;;;;;;38.42;19.13;;;;;;;;;;2068737;28;20029;-63
2024/02/23 01:56:18;;;;;;;40.88;19.65;;;;;;;;;;2070184;28;20459;-63
2024/02/23 01:57:37;;;;;;;38.83;19.77;;;;;;;;;;2068890;28;20034;-64
2024/02/23 01:58:56;;;;;;;40.10;19.38;;;;;;;;;;2068408;28;20022;-63
2024/02/23 02:00:16;;;;;;;40.75;19.52;;;;;;;;;;2068255;28;20034;-64
2024/02/23 02:01:35;;;;;;;41.90;20.58;;;;;;;;;;2068507;28;20116;-63
2024/02/23 02:02:54;;;;;;;39.08;20.60;;;;;;;;;;2067347;28;20041;-63
2024/02/23 02:04:13;;;;;;;44.80;21.42;;;;;;;;;;2066912;28;20467;-64
2024/02/23 02:05:32;;;;;;;36.70;20.67;;;;;;;;;;2068680;28;20037;-63
2024/02/23 02:06:51;;;;;;;41.95;20.67;;;;;;;;;;2070715;28;20038;-63
2024/02/23 02:08:10;;;;;;;40.42;22.35;;;;;;;;;;2069504;28;20041;-63
2024/02/23 02:09:29;;;;;;;45.80;22.17;;;;;;;;;;2066340;28;20042;-63
2024/02/23 02:10:49;;;;;;;46.42;22.42;;;;;;;;;;2067345;28;20034;-64
2024/02/23 02:12:08;;;;;;;40.97;21.88;;;;;;;;;;2068621;28;20046;-63
2024/02/23 02:13:28;;;;;;;54.10;23.25;;;;;;;;;;2069078;28;20511;-64
2024/02/23 02:14:47;;;;;;;44.22;22.77;;;;;;;;;;2069268;28;20030;-63
2024/02/23 02:16:06;;;;;;;48.20;22.73;;;;;;;;;;2073104;28;20028;-63
2024/02/23 02:17:25;;;;;;;47.95;22.83;;;;;;;;;;2069403;28;20037;-63
2024/02/23 02:18:45;;;;;;;47.03;23.10;;;;;;;;;;2067208;28;20026;-63
2024/02/23 02:20:05;;;;;;;43.97;22.13;;;;;;;;;;2067930;28;20037;-64
2024/02/23 02:21:25;;;;;;;49.42;23.98;;;;;;;;;;2069716;28;20054;-63
2024/02/23 02:22:43;;;;;;;51.40;22.70;;;;;;;;;;2070090;28;20038;-66
2024/02/23 02:24:02;;;;;;;43.78;22.50;;;;;;;;;;2064540;28;20089;-64
2024/02/23 02:25:21;;;;;;;44.58;22.35;;;;;;;;;;2067438;28;20030;-64
2024/02/23 02:26:40;;;;;;;47.05;21.45;;;;;;;;;;2071448;28;20045;-64
2024/02/23 02:27:59;;;;;;;54.63;23.15;;;;;;;;;;2071514;28;20410;-64
2024/02/23 02:29:18;;;;;;;50.13;22.33;;;;;;;;;;2070029;28;20038;-64
2024/02/23 02:30:37;;;;;;;52.42;23.25;;;;;;;;;;2068482;28;20554;-66
2024/02/23 02:31:57;;;;;;;45.22;22.58;;;;;;;;;;2070739;28;20071;-64
2024/02/23 02:33:16;;;;;;;46.40;23.23;;;;;;;;;;2070523;28;20498;-63
2024/02/23 02:34:35;;;;;;;41.85;22.08;;;;;;;;;;2071259;28;20079;-63
2024/02/23 02:35:53;;;;;;;47.67;21.70;;;;;;;;;;2069019;28;20126;-63
2024/02/23 02:37:12;;;;;;;40.95;20.92;;;;;;;;;;2069768;28;20053;-65
2024/02/23 02:38:33;;;;;;;45.55;21.80;;;;;;;;;;2069731;28;20026;-64
2024/02/23 02:39:52;;;;;;;44.75;21.88;;;;;;;;;;2068853;28;20042;-63
2024/02/23 02:41:10;;;;;;;41.55;21.90;;;;;;;;;;2069571;28;20054;-63
2024/02/23 02:42:29;;;;;;;42.45;21.50;;;;;;;;;;2066694;28;20493;-63
2024/02/23 02:43:48;;;;;;;46.47;22.60;;;;;;;;;;2069653;28;20131;-63
2024/02/23 02:45:07;;;;;;;44.65;20.60;;;;;;;;;;2069567;28;20046;-63
2024/02/23 02:46:26;;;;;;;44.63;21.20;;;;;;;;;;2068849;28;20038;-63
2024/02/23 02:47:45;;;;;;;40.10;21.15;;;;;;;;;;2065513;28;20054;-63
2024/02/23 02:49:04;;;;;;;45.42;21.85;;;;;;;;;;2064003;28;20042;-63
2024/02/23 02:50:22;;;;;;;43.95;20.65;;;;;;;;;;2068450;28;20080;-63
2024/02/23 02:51:41;;;;;;;40.47;20.20;;;;;;;;;;2070135;28;20029;-63
2024/02/23 02:53:00;;;;;;;37.45;19.33;;;;;;;;;;2068449;28;20026;-63
2024/02/23 02:54:19;;;;;;;38.92;20.70;;;;;;;;;;2071010;28;20026;-63
2024/02/23 02:55:42;;;;;;;37.58;20.08;;;;;;;;;;2069794;28;20042;-63
2024/02/23 02:57:01;;;;;;;35.95;19.30;;;;;;;;;;2069203;28;20030;-63
2024/02/23 02:58:20;;;;;;;36.33;19.55;;;;;;;;;;2069137;28;20026;-64
2024/02/23 02:59:39;;;;;;;37.45;19.20;;;;;;;;;;2066941;28;20038;-65
2024/02/23 03:00:58;;;;;;;39.65;19.90;;;;;;;;;;2068392;28;20424;-64
2024/02/23 03:02:17;;;;;;;42.50;20.05;;;;;;;;;;2067339;28;20449;-64
2024/02/23 03:03:36;;;;;;;39.55;19.33;;;;;;;;;;2067422;28;20046;-63
2024/02/23 03:04:55;;;;;;;39.45;19.88;;;;;;;;;;2068344;28;20034;-63
2024/02/23 03:06:14;;;;;;;42.15;21.40;;;;;;;;;;2069749;28;20892;-63
2024/02/23 03:07:33;;;;;;;45.22;22.25;;;;;;;;;;2068949;28;20112;-63
2024/02/23 03:08:52;;;;;;;48.22;21.67;;;;;;;;;;2068269;28;20121;-63
2024/02/23 03:10:11;;;;;;;48.72;21.10;;;;;;;;;;2067676;28;20054;-65
2024/02/23 03:11:30;;;;;;;44.55;21.25;;;;;;;;;;2069123;28;20034;-63
2024/02/23 03:12:49;;;;;;;42.95;20.08;;;;;;;;;;2068674;28;20034;-64
2024/02/23 03:14:09;;;;;;;45.45;22.65;;;;;;;;;;2068613;28;20026;-64
2024/02/23 03:15:28;;;;;;;34.13;19.35;;;;;;;;;;2069953;28;20398;-63
2024/02/23 03:16:49;;;;;;;39.47;19.08;;;;;;;;;;2068668;28;20034;-63
2024/02/23 03:18:09;;;;;;;39.08;18.75;;;;;;;;;;2069561;28;20506;-63
2024/02/23 03:19:28;;;;;;;38.75;17.80;;;;;;;;;;2068087;28;20034;-63
2024/02/23 03:20:47;;;;;;;41.45;19.95;;;;;;;;;;2069146;28;20034;-64
2024/02/23 03:22:06;;;;;;;37.17;18.70;;;;;;;;;;2067366;28;20034;-63
2024/02/23 03:23:25;;;;;;;33.53;17.80;;;;;;;;;;2069289;28;20038;-63
2024/02/23 03:24:44;;;;;;;36.40;17.65;;;;;;;;;;2070500;28;20040;-64
2024/02/23 03:26:03;;;;;;;36.58;18.23;;;;;;;;;;2069568;28;20030;-64
2024/02/23 03:27:27;;;;;;;34.60;17.75;;;;;;;;;;2069333;28;20429;-64
2024/02/23 03:28:48;;;;;;;31.02;16.50;;;;;;;;;;2072141;28;20038;-64
2024/02/23 03:30:10;;;;;;;30.73;16.38;;;;;;;;;;2068378;28;20421;-64
2024/02/23 03:31:29;;;;;;;28.35;16.25;;;;;;;;;;2067020;28;20042;-63
2024/02/23 03:32:48;;;;;;;27.17;15.93;;;;;;;;;;2072203;28;20026;-63
2024/02/23 03:34:07;;;;;;;28.40;16.88;;;;;;;;;;2069709;28;20034;-63
2024/02/23 03:35:26;;;;;;;27.75;16.73;;;;;;;;;;2069648;28;20445;-64
2024/02/23 03:36:46;;;;;;;27.92;16.95;;;;;;;;;;2070796;28;20038;-63
2024/02/23 03:38:05;;;;;;;28.02;16.33;;;;;;;;;;2070133;28;20109;-63
2024/02/23 03:39:25;;;;;;;27.10;14.85;;;;;;;;;;2069324;28;20457;-64
2024/02/23 03:40:43;;;;;;;26.05;14.40;;;;;;;;;;2071154;28;20395;-64
2024/02/23 03:42:03;;;;;;;26.67;14.48;;;;;;;;;;2067991;28;20026;-65
2024/02/23 03:43:22;;;;;;;26.25;15.00;;;;;;;;;;2069181;28;20506;-63
2024/02/23 03:44:42;;;;;;;25.95;14.88;;;;;;;;;;2070809;28;20119;-63
2024/02/23 03:46:01;;;;;;;24.65;15.23;;;;;;;;;;2071315;28;20117;-63
2024/02/23 03:47:20;;;;;;;26.73;15.07;;;;;;;;;;2069704;28;20134;-64
2024/02/23 03:48:40;;;;;;;30.85;16.88;;;;;;;;;;2069272;28;20463;-63
2024/02/23 03:49:59;;;;;;;27.63;15.88;;;;;;;;;;2069473;28;20042;-63
2024/02/23 03:51:18;;;;;;;31.80;16.48;;;;;;;;;;2069695;28;20390;-64
2024/02/23 03:52:37;;;;;;;30.70;16.75;;;;;;;;;;2070297;28;20038;-64
2024/02/23 03:53:56;;;;;;;29.95;17.48;;;;;;;;;;2068828;28;20202;-64
2024/02/23 03:55:15;;;;;;;31.42;17.10;;;;;;;;;;2068451;28;20113;-63
2024/02/23 03:56:41;;;;;;;31.83;17.27;;;;;;;;;;2070576;28;20034;-64
2024/02/23 03:58:00;;;;;;;35.78;18.55;;;;;;;;;;2071778;28;20042;-63
2024/02/23 03:59:19;;;;;;;42.15;20.42;;;;;;;;;;2069336;28;20123;-64
2024/02/23 04:00:37;;;;;;;39.00;18.73;;;;;;;;;;2068537;28;20577;-64
2024/02/23 04:01:56;;;;;;;35.85;18.42;;;;;;;;;;2067749;28;20539;-63
2024/02/23 04:03:15;;;;;;;35.80;19.30;;;;;;;;;;2064825;28;20518;-64
2024/02/23 04:04:34;;;;;;;41.83;20.33;;;;;;;;;;2068469;28;20069;-64
2024/02/23 04:05:53;;;;;;;41.33;21.02;;;;;;;;;;2070842;28;20034;-64
2024/02/23 04:07:12;;;;;;;48.63;21.52;;;;;;;;;;2069564;28;20077;-64
2024/02/23 04:08:31;;;;;;;44.47;22.05;;;;;;;;;;2070290;28;20058;-63
2024/02/23 04:09:52;;;;;;;45.97;21.63;;;;;;;;;;2066260;28;20509;-63
2024/02/23 04:11:12;;;;;;;45.83;21.00;;;;;;;;;;2069188;28;20034;-63
2024/02/23 04:12:31;;;;;;;48.72;22.17;;;;;;;;;;2069069;28;20113;-64
2024/02/23 04:13:50;;;;;;;51.35;22.00;;;;;;;;;;2071009;28;20038;-64
2024/02/23 04:15:09;;;;;;;43.72;20.67;;;;;;;;;;2068870;28;20034;-64
2024/02/23 04:16:29;;;;;;;54.80;21.58;;;;;;;;;;2069040;28;20056;-63
2024/02/23 04:17:47;;;;;;;51.08;22.20;;;;;;;;;;2069955;28;20674;-63
2024/02/23 04:19:06;;;;;;;52.72;22.58;;;;;;;;;;2069416;28;20022;-63
2024/02/23 04:20:25;;;;;;;53.75;23.25;;;;;;;;;;2067718;28;20030;-64
2024/02/23 04:21:44;;;;;;;51.13;22.23;;;;;;;;;;2065904;28;20530;-64
2024/02/23 04:23:03;;;;;;;44.92;19.98;;;;;;;;;;2068590;28;20038;-63
2024/02/23 04:24:22;;;;;;;47.97;20.63;;;;;;;;;;2070399;28;20030;-63
2024/02/23 04:25:41;;;;;;;41.95;18.30;;;;;;;;;;2066525;28;20492;-63
2024/02/23 04:27:00;;;;;;;43.83;19.35;;;;;;;;;;2070097;28;20030;-65
2024/02/23 04:28:19;;;;;;;40.53;18.45;;;;;;;;;;2069733;28;20030;-64
2024/02/23 04:29:38;;;;;;;35.53;17.40;;;;;;;;;;2070424;28;20034;-63
2024/02/23 04:30:57;;;;;;;38.78;17.55;;;;;;;;;;2069201;28;20483;-63
2024/02/23 04:32:16;;;;;;;35.53;17.77;;;;;;;;;;2068962;28;20314;-63
2024/02/23 04:33:36;;;;;;;37.35;18.23;;;;;;;;;;2068874;28;20029;-63
2024/02/23 04:34:55;;;;;;;37.38;18.02;;;;;;;;;;2068921;28;20037;-63
2024/02/23 04:36:14;;;;;;;39.42;18.33;;;;;;;;;;2069501;28;20033;-65
2024/02/23 04:37:33;;;;;;;37.65;17.30;;;;;;;;;;2069003;28;20117;-63
2024/02/23 04:38:52;;;;;;;45.70;19.10;;;;;;;;;;2069129;28;20113;-63
2024/02/23 04:40:11;;;;;;;38.28;17.13;;;;;;;;;;2065914;28;20038;-64
2024/02/23 04:41:30;;;;;;;37.08;18.20;;;;;;;;;;2066929;28;20069;-63
2024/02/23 04:42:49;;;;;;;39.45;17.23;;;;;;;;;;2073280;28;20038;-64
2024/02/23 04:44:08;;;;;;;37.65;17.65;;;;;;;;;;2116452;27;20035;-63
2024/02/23 04:45:27;;;;;;;37.65;18.67;;;;;;;;;;2086704;27;20558;-63
2024/02/23 04:46:46;;;;;;;34.55;17.42;;;;;;;;;;2067934;28;20078;-63
2024/02/23 04:48:05;;;;;;;33.53;17.52;;;;;;;;;;2068194;28;20129;-63
2024/02/23 04:49:24;;;;;;;38.35;17.50;;;;;;;;;;2069806;28;20369;-64
2024/02/23 04:50:43;;;;;;;32.08;16.23;;;;;;;;;;2067725;28;20507;-64
2024/02/23 04:52:02;;;;;;;29.80;15.23;;;;;;;;;;2067967;28;20030;-63
2024/02/23 04:53:21;;;;;;;29.75;15.30;;;;;;;;;;2068500;28;20042;-63
2024/02/23 04:54:40;;;;;;;29.15;15.30;;;;;;;;;;2067045;28;20121;-63
2024/02/23 04:55:59;;;;;;;28.20;15.75;;;;;;;;;;2068430;28;20038;-63
2024/02/23 04:57:19;;;;;;;29.95;15.20;;;;;;;;;;2067680;28;20074;-63
2024/02/23 04:58:37;;;;;;;26.25;14.48;;;;;;;;;;2067823;28;20038;-63
2024/02/23 04:59:56;;;;;;;23.70;14.57;;;;;;;;;;2068572;28;20387;-63
2024/02/23 05:01:15;;;;;;;23.58;12.73;;;;;;;;;;2069061;28;20542;-64
2024/02/23 05:02:35;;;;;;;21.75;13.43;;;;;;;;;;2067410;28;20121;-64
2024/02/23 05:03:54;;;;;;;20.25;11.52;;;;;;;;;;2066583;28;20413;-63
2024/02/23 05:05:12;;;;;;;21.50;12.20;;;;;;;;;;2068154;28;20460;-63
2024/02/23 05:06:31;;;;;;;19.40;11.90;;;;;;;;;;2067233;28;20129;-64
2024/02/23 05:07:50;;;;;;;21.58;12.27;;;;;;;;;;2067931;28;20034;-63
2024/02/23 05:09:09;;;;;;;22.63;12.98;;;;;;;;;;2066841;28;20034;-63
2024/02/23 05:10:28;;;;;;;19.55;11.10;;;;;;;;;;2068984;28;20658;-63
2024/02/23 05:11:47;;;;;;;18.88;11.10;;;;;;;;;;2068120;28;20131;-64
2024/02/23 05:13:06;;;;;;;16.90;11.27;;;;;;;;;;2069108;28;20402;-63
2024/02/23 05:14:26;;;;;;;17.27;11.35;;;;;;;;;;2068590;28;20030;-64
2024/02/23 05:15:45;;;;;;;17.52;11.30;;;;;;;;;;2065221;28;20023;-64
2024/02/23 05:17:04;;;;;;;16.58;11.50;;;;;;;;;;2070311;28;20038;-64
2024/02/23 05:18:23;;;;;;;17.23;11.93;;;;;;;;;;2072147;28;20056;-63
2024/02/23 05:19:42;;;;;;;18.63;12.23;;;;;;;;;;2069354;28;20526;-63
2024/02/23 05:21:01;;;;;;;21.55;12.30;;;;;;;;;;2067611;28;20042;-63
2024/02/23 05:22:20;;;;;;;20.20;12.35;;;;;;;;;;2068897;28;20037;-63
2024/02/23 05:23:39;;;;;;;21.05;12.48;;;;;;;;;;2066864;28;20404;-63
2024/02/23 05:24:58;;;;;;;24.98;13.50;;;;;;;;;;2069618;28;20042;-63
2024/02/23 05:26:17;;;;;;;25.95;14.00;;;;;;;;;;2069101;28;20034;-64
2024/02/23 05:27:36;;;;;;;28.45;14.65;;;;;;;;;;2066848;28;20084;-63
2024/02/23 05:28:55;;;;;;;28.00;14.82;;;;;;;;;;2069388;28;20518;-63
2024/02/23 05:30:14;;;;;;;29.35;15.32;;;;;;;;;;2068686;28;20046;-64
2024/02/23 05:31:45;;;;;;;30.50;15.02;;;;;;;;;;2069178;28;20129;-63
2024/02/23 05:33:04;;;;;;;26.67;15.00;;;;;;;;;;2065033;28;20032;-63
2024/02/23 05:34:23;;;;;;;30.15;15.82;;;;;;;;;;2065564;28;20030;-64
2024/02/23 05:35:42;;;;;;;26.42;15.32;;;;;;;;;;2065359;28;20042;-63
2024/02/23 05:37:01;;;;;;;31.88;16.88;;;;;;;;;;2070754;28;20029;-63
2024/02/23 05:38:20;;;;;;;34.58;17.40;;;;;;;;;;2067802;28;20045;-63
2024/02/23 05:39:39;;;;;;;32.53;14.95;;;;;;;;;;2066294;28;20057;-63
2024/02/23 05:40:59;;;;;;;37.22;16.40;;;;;;;;;;2068753;28;20041;-63
2024/02/23 05:42:18;;;;;;;39.10;16.38;;;;;;;;;;2069437;28;20073;-63
2024/02/23 05:43:37;;;;;;;35.72;16.50;;;;;;;;;;2066322;28;20033;-63
2024/02/23 05:44:57;;;;;;;31.13;15.85;;;;;;;;;;2068336;28;20042;-63
2024/02/23 05:46:16;;;;;;;32.15;15.27;;;;;;;;;;2067400;28;20050;-63
2024/02/23 05:47:36;;;;;;;32.35;15.82;;;;;;;;;;2071658;28;20050;-65
2024/02/23 05:48:55;;;;;;;36.30;16.73;;;;;;;;;;2068304;28;20514;-63
2024/02/23 05:50:14;;;;;;;30.33;15.25;;;;;;;;;;2068977;28;20061;-61
2024/02/23 05:51:33;;;;;;;41.25;17.20;;;;;;;;;;2068529;28;20546;-64
2024/02/23 05:52:55;;;;;;;38.88;16.27;;;;;;;;;;2068918;28;20026;-63
2024/02/23 05:54:14;;;;;;;36.58;16.30;;;;;;;;;;2068023;28;20031;-63
2024/02/23 05:55:33;;;;;;;39.00;17.50;;;;;;;;;;2073315;28;20109;-63
2024/02/23 05:56:53;;;;;;;42.35;17.73;;;;;;;;;;2067541;28;20516;-63
2024/02/23 05:58:13;;;;;;;36.42;16.02;;;;;;;;;;2067489;28;20042;-63
2024/02/23 05:59:32;;;;;;;40.80;16.50;;;;;;;;;;2069660;28;20271;-63
2024/02/23 06:00:51;;;;;;;38.85;16.63;;;;;;;;;;2068310;28;20031;-63
2024/02/23 06:02:10;;;;;;;46.30;18.17;;;;;;;;;;2066276;28;20022;-64
2024/02/23 06:03:29;;;;;;;32.42;15.77;;;;;;;;;;2070750;28;20033;-63
2024/02/23 06:04:48;;;;;;;33.38;15.65;;;;;;;;;;2070957;28;20034;-63
2024/02/23 06:06:08;;;;;;;35.08;16.40;;;;;;;;;;2067213;28;20042;-63
2024/02/23 06:07:28;;;;;;;34.08;16.10;;;;;;;;;;2066867;28;20180;-63
2024/02/23 06:08:49;;;;;;;35.85;16.20;;;;;;;;;;2068285;28;20434;-63
2024/02/23 06:10:09;;;;;;;41.13;17.60;;;;;;;;;;2067250;28;20034;-64
2024/02/23 06:11:28;;;;;;;37.63;16.95;;;;;;;;;;2067677;28;20030;-63
2024/02/23 06:12:47;;;;;;;34.95;16.58;;;;;;;;;;2067733;28;20031;-63
2024/02/23 06:14:06;;;;;;;40.90;17.10;;;;;;;;;;2065643;28;20051;-63
2024/02/23 06:15:25;;;;;;;39.65;17.30;;;;;;;;;;2068390;28;20474;-62
2024/02/23 06:16:44;;;;;;;38.40;17.50;;;;;;;;;;2068159;28;20038;-63
2024/02/23 06:18:03;;;;;;;42.72;19.10;;;;;;;;;;2070193;28;20022;-63
2024/02/23 06:19:22;;;;;;;44.60;18.52;;;;;;;;;;2069571;28;20655;-63
2024/02/23 06:20:41;;;;;;;45.30;18.90;;;;;;;;;;2067757;28;20058;-63
2024/02/23 06:22:00;;;;;;;33.95;16.73;;;;;;;;;;2067202;28;20033;-63
2024/02/23 06:23:19;;;;;;;39.97;17.58;;;;;;;;;;2067707;28;20108;-64
2024/02/23 06:24:37;;;;;;;37.22;17.10;;;;;;;;;;2068498;28;20022;-63
2024/02/23 06:25:56;;;;;;;41.35;17.52;;;;;;;;;;2070763;28;20026;-63
2024/02/23 06:27:15;;;;;;;30.92;14.70;;;;;;;;;;2067407;28;20054;-63
2024/02/23 06:28:34;;;;;;;33.25;16.23;;;;;;;;;;2066557;28;20593;-63
2024/02/23 06:29:53;;;;;;;30.48;15.82;;;;;;;;;;2066542;28;20038;-63
2024/02/23 06:31:12;;;;;;;33.15;15.98;;;;;;;;;;2067420;28;20060;-62
2024/02/23 06:32:31;;;;;;;34.72;17.33;;;;;;;;;;2067945;28;20045;-63
2024/02/23 06:33:51;;;;;;;42.90;19.08;;;;;;;;;;2068657;28;20034;-64
2024/02/23 06:35:11;;;;;;;48.10;19.40;;;;;;;;;;2065350;28;20035;-63
2024/02/23 06:36:31;;;;;;;46.83;20.48;;;;;;;;;;2066792;28;20113;-63
2024/02/23 06:37:50;;;;;;;49.63;22.23;;;;;;;;;;2068518;28;20171;-63
2024/02/23 06:39:09;;;;;;;50.67;21.50;;;;;;;;;;2068515;28;20026;-63
2024/02/23 06:40:28;;;;;;;50.42;21.27;;;;;;;;;;2065954;28;20108;-63
2024/02/23 06:41:47;;;;;;;48.58;21.67;;;;;;;;;;2068748;28;20731;-64
2024/02/23 06:43:05;;;;;;;46.13;20.55;;;;;;;;;;2067266;28;20069;-64
2024/02/23 06:44:24;;;;;;;52.78;20.35;;;;;;;;;;2069007;28;20507;-63
2024/02/23 06:45:44;;;;;;;41.63;20.17;;;;;;;;;;2061302;28;20053;-64
2024/02/23 06:47:03;;;;;;;47.08;21.38;;;;;;;;;;2068865;28;20029;-63
2024/02/23 06:48:24;;;;;;;43.13;21.00;;;;;;;;;;2064674;28;20053;-64
2024/02/23 06:49:43;;;;;;;38.78;18.77;;;;;;;;;;2067025;28;20594;-64
2024/02/23 06:51:03;;;;;;;37.58;17.92;;;;;;;;;;2066989;28;20042;-64
2024/02/23 06:52:23;;;;;;;35.50;18.00;;;;;;;;;;2067701;28;20097;-66
2024/02/23 06:53:42;;;;;;;42.10;18.98;;;;;;;;;;2067779;28;20022;-63
2024/02/23 06:55:01;;;;;;;34.13;18.30;;;;;;;;;;2068386;28;20514;-64
2024/02/23 06:56:20;;;;;;;38.05;17.70;;;;;;;;;;2067299;28;20514;-67
2024/02/23 06:57:39;;;;;;;38.15;19.48;;;;;;;;;;2069633;28;20516;-63
2024/02/23 06:58:57;;;;;;;34.08;17.67;;;;;;;;;;2069154;28;20062;-63
2024/02/23 07:00:16;;;;;;;31.48;16.42;;;;;;;;;;2066234;28;20035;-64
2024/02/23 07:01:37;;;;;;;36.22;18.65;;;;;;;;;;2068066;28;20033;-63
2024/02/23 07:02:58;;;;;;;38.80;19.27;;;;;;;;;;2066335;28;20035;-64
2024/02/23 07:04:17;;;;;;;35.78;17.95;;;;;;;;;;2067493;28;20035;-63
2024/02/23 07:05:36;;;;;;;36.53;19.90;;;;;;;;;;2066210;28;20034;-63
2024/02/23 07:06:55;;;;;;;42.30;18.63;;;;;;;;;;2067562;28;20161;-64
2024/02/23 07:08:14;;;;;;;36.92;19.08;;;;;;;;;;2069635;28;20120;-64
2024/02/23 07:09:34;;;;;;;37.15;19.73;;;;;;;;;;2070226;28;20038;-64
2024/02/23 07:10:53;;;;;;;33.47;18.33;;;;;;;;;;2067221;28;20034;-64
2024/02/23 07:12:13;;;;;;;34.08;18.35;;;;;;;;;;2068379;28;20038;-64
2024/02/23 07:13:32;;;;;;;34.78;18.38;;;;;;;;;;2071669;28;20038;-64
2024/02/23 07:14:51;;;;;;;37.55;18.67;;;;;;;;;;2069847;28;20034;-63
2024/02/23 07:16:11;;;;;;;38.85;19.50;;;;;;;;;;2069158;28;20029;-64
2024/02/23 07:17:30;;;;;;;43.72;21.50;;;;;;;;;;2071040;28;20034;-63
2024/02/23 07:18:49;;;;;;;39.60;19.27;;;;;;;;;;2067335;28;20062;-63
2024/02/23 07:20:08;;;;;;;37.80;20.45;;;;;;;;;;2071691;28;20603;-63
2024/02/23 07:21:27;;;;;;;43.25;21.45;;;;;;;;;;2072643;28;20030;-63
2024/02/23 07:22:46;;;;;;;44.20;20.33;;;;;;;;;;2064875;28;20034;-64
2024/02/23 07:24:06;;;;;;;45.10;21.02;;;;;;;;;;2067513;28;20039;-64
2024/02/23 07:25:25;;;;;;;40.17;21.42;;;;;;;;;;2070561;28;20057;-64
2024/02/23 07:26:44;;;;;;;45.72;21.58;;;;;;;;;;2071559;28;20030;-64
2024/02/23 07:28:04;;;;;;;42.47;21.13;;;;;;;;;;2070362;28;20124;-63
2024/02/23 07:29:22;;;;;;;35.88;19.65;;;;;;;;;;2067984;28;20029;-64
2024/02/23 07:30:41;;;;;;;35.42;18.90;;;;;;;;;;2070315;28;20044;-64
2024/02/23 07:32:00;;;;;;;35.97;19.23;;;;;;;;;;2070368;28;20026;-63
2024/02/23 07:33:19;;;;;;;34.78;19.73;;;;;;;;;;2068968;28;20479;-62
2024/02/23 07:34:38;;;;;;;37.13;19.48;;;;;;;;;;2069162;28;20043;-63
2024/02/23 07:35:57;;;;;;;35.97;19.95;;;;;;;;;;2070488;28;20028;-62
2024/02/23 07:37:16;;;;;;;30.77;18.25;;;;;;;;;;2069285;28;20029;-62
2024/02/23 07:38:35;;;;;;;37.30;19.00;;;;;;;;;;2070650;28;20411;-62
2024/02/23 07:39:54;;;;;;;30.92;17.33;;;;;;;;;;2068907;28;20030;-63
2024/02/23 07:41:13;;;;;;;33.40;18.10;;;;;;;;;;2069824;28;20465;-63